Aérodrome :
LOGIN :

S'inscrire | Disclaimer

   EN    FR    IT 

 










Légende :    VFR   VFR Marginal   IFR   IFR Intensif   IFR Très Intensif
Visi : 
Plafond : 
>= 8 km
>= 3000ft
5 à 8 km
1000 à 3000 ft
1500m à 5 km
500 à 1000 ft
800 à 1500m
200 à 500 ft
< 800m
< 200 ft
Symboles :   Orages  Brouillard  Fortes neiges  Fortes précipitations  Vent > 20 kt
SIGMETs :   Divers  Orages  Givrage  Turbulence  Onde Orograph.  Cendres Volcan.






- Altitude de l'aérodrome : 359 ft
- Code IATA : BVA


LFOB - Beauvais

DERNIER METAR :
  • 170630Z AUTO 28003KT 9999 FEW031 BKN050 OVC062 03/02 Q1020 TEMPO 4000 RA BKN013

METARs EXPIRÉS :
  • 170600Z AUTO 31008KT 9999 -RA FEW020 SCT027 BKN034 03/02 Q1020 TEMPO 4000 RA BKN013
  • 170530Z AUTO 29008KT 9999 BKN019 BKN028 BKN042 03/03 Q1020 TEMPO 4000 RA BKN013
  • 170500Z AUTO 30009KT 9999 SCT013/// BKN020/// BKN029/// ///TCU 03/03 Q1019 TEMPO 3000 SHRA OVC003
  • 170430Z AUTO 28008KT 9999 FEW019/// SCT026/// BKN036/// ///TCU 03/03 Q1019 TEMPO 3000 SHRA OVC003
  • 170400Z AUTO 29005KT 9999 FEW022/// SCT034/// BKN041/// ///TCU 02/02 Q1019 TEMPO 2000 DZRA BR OVC003

TAF TAF LFOB
Valide du 17 à 06h jusqu'au 18 à 06h UTC


170500Z 1706/1806 31010KT 9999 SCT020 BKN040
TEMPO 1706/1709 4000 RA BKN013
BECMG 1718/1720 VRB02KT
BECMG 1800/1804 3000 BR
PROB40 1803/1806 0500 FG VV///
ATIS : +33 3 44 11 49 28



MET'MAP, la Météo Aéronautique d'un coup d'oeil ! - Copyright ORBIFLY Décembre 2007 - Disclaimer

ORBIFLY MET'MAP TEAM :

Programmation & Développement : Alexandra Zaïnal
Sur une idée originale de : Baudouin d'Aumeries
Assistance à la programmation : Marc-Olivier Méhu
Soutien technique & logistique : Manuel Goepfert

Contact : metmap@orbifly.com




SOURCES & CREDITS :

   NOAA